Time;durP1;ratioP1;P1;durP2;ratioP2;P2;SDS_P1;SDS_P2;PMS_P1;PMS_P2;Temp;Humidity;BMP_temperature;BMP_pressure;BME280_temperature;BME280_humidity;BME280_pressure;Samples;Min_cycle;Max_cycle;Signal;HPM_P1;HPM_P2
2022/09/14 00:01:49;;;;;;;;;;;;;;;13.07;80.45;98377.58;1665094;85;20096;-69
2022/09/14 00:04:17;;;;;;;;;;;;;;;13.10;80.21;98376.66;1667278;85;20154;-70
2022/09/14 00:06:43;;;;;;;;;;;;;;;13.13;79.88;98373.56;1659334;85;20442;-69
2022/09/14 00:09:19;;;;;;;;;;;;;;;13.13;79.58;98373.56;1666185;85;21166;-69
2022/09/14 00:11:46;;;;;;;;;;;;;;;13.12;79.33;98365.75;1681089;85;20449;-69
2022/09/14 00:14:13;;;;;;;;;;;;;;;13.06;79.12;98367.41;1668364;84;20080;-69
2022/09/14 00:16:40;;;;;;;;;;;;;;;13.02;79.07;98366.18;1691867;83;20103;-69
2022/09/14 00:19:09;;;;;;;;;;;;;;;13.00;78.99;98370.92;1714793;82;20098;-69
2022/09/14 00:21:36;;;;;;;;;;;;;;;12.97;78.96;98362.00;1697402;83;21257;-69
2022/09/14 00:24:03;;;;;;;;;;;;;;;12.97;78.94;98359.33;1712233;84;20102;-69
2022/09/14 00:26:30;;;;;;;;;;;;;;;12.97;78.70;98357.48;1696736;83;20103;-69
2022/09/14 00:28:57;;;;;;;;;;;;;;;12.97;78.65;98355.33;1696693;83;20108;-69
2022/09/14 00:31:24;;;;;;;;;;;;;;;12.98;78.53;98345.75;1714206;82;20087;-69
2022/09/14 00:33:52;;;;;;;;;;;;;;;12.97;78.37;98345.98;1690670;83;21409;-68
2022/09/14 00:36:21;;;;;;;;;;;;;;;12.94;78.39;98343.73;1711678;82;20121;-68
2022/09/14 00:38:48;;;;;;;;;;;;;;;12.93;78.32;98336.77;1695077;83;20170;-69
2022/09/14 00:41:16;;;;;;;;;;;;;;;12.91;78.19;98336.14;1715772;82;20095;-69
2022/09/14 00:44:13;;;;;;;;;;;;;;;12.81;78.29;98330.44;1693764;83;20178;-69
2022/09/14 00:46:46;;;;;;;;;;;;;;;12.74;78.42;98333.16;1711708;82;20799;-69
2022/09/14 00:49:15;;;;;;;;;;;;;;;12.69;78.65;98326.81;1690677;85;20089;-69
2022/09/14 00:51:48;;;;;;;;;;;;;;;12.64;78.72;98329.30;1690504;85;20153;-69
2022/09/14 00:54:14;;;;;;;;;;;;;;;12.57;78.90;98331.14;1689519;84;20486;-70
2022/09/14 00:56:41;;;;;;;;;;;;;;;12.49;79.12;98328.73;1691009;85;20243;-67
2022/09/14 00:59:19;;;;;;;;;;;;;;;12.45;79.25;98325.66;1691332;83;21114;-67
2022/09/14 01:01:45;;;;;;;;;;;;;;;12.38;79.40;98322.98;1688321;85;20467;-69
2022/09/14 01:04:11;;;;;;;;;;;;;;;12.33;79.48;98318.80;1690877;85;20467;-69
2022/09/14 01:06:44;;;;;;;;;;;;;;;12.25;79.54;98305.69;1690686;84;20675;-69
2022/09/14 01:09:23;;;;;;;;;;;;;;;12.12;79.82;98307.59;1691026;85;20114;-69
2022/09/14 01:12:12;;;;;;;;;;;;;;;12.02;80.11;98302.66;1690673;85;21273;-69
2022/09/14 01:14:42;;;;;;;;;;;;;;;11.92;80.39;98299.61;1644193;84;20095;-68
2022/09/14 01:17:19;;;;;;;;;;;;;;;11.86;80.75;98295.13;1691011;85;20415;-68
2022/09/14 01:20:01;;;;;;;;;;;;;;;11.82;81.03;98297.88;1691202;83;20102;-68
2022/09/14 01:22:44;;;;;;;;;;;;;;;11.81;81.30;98291.44;1690624;85;20431;-69
2022/09/14 01:25:23;;;;;;;;;;;;;;;11.82;81.51;98287.22;1646492;85;21303;-69
2022/09/14 01:27:50;;;;;;;;;;;;;;;11.85;81.70;98286.81;1690685;84;20507;-68
2022/09/14 01:30:19;;;;;;;;;;;;;;;11.90;81.75;98285.67;1691268;83;20114;-68
2022/09/14 01:32:55;;;;;;;;;;;;;;;11.98;81.79;98279.30;1691130;85;20081;-69
2022/09/14 01:35:36;;;;;;;;;;;;;;;12.06;81.77;98269.76;1688687;84;20133;-67
2022/09/14 01:38:08;;;;;;;;;;;;;;;12.16;81.64;98277.63;1690758;85;21215;-70
2022/09/14 01:40:41;;;;;;;;;;;;;;;12.29;81.34;98267.44;1690123;85;20444;-70
2022/09/14 01:43:26;;;;;;;;;;;;;;;12.40;80.87;98268.13;1691376;85;20147;-70
2022/09/14 01:45:55;;;;;;;;;;;;;;;12.55;80.06;98271.85;1661201;85;20164;-69
2022/09/14 01:48:24;;;;;;;;;;;;;;;12.69;79.19;98264.10;1681783;81;20166;-69
2022/09/14 01:50:52;;;;;;;;;;;;;;;12.80;78.34;98259.44;1689877;81;21017;-69
2022/09/14 01:53:34;;;;;;;;;;;;;;;12.88;77.53;98262.65;1692681;80;20090;-70
2022/09/14 01:56:02;;;;;;;;;;;;;;;12.97;76.86;98256.05;1691436;81;20105;-70
2022/09/14 01:58:41;;;;;;;;;;;;;;;13.03;76.25;98249.54;1694917;81;20202;-70
2022/09/14 02:01:09;;;;;;;;;;;;;;;13.09;75.68;98244.72;1689622;82;20205;-70
2022/09/14 02:03:41;;;;;;;;;;;;;;;13.11;75.43;98239.46;1689824;81;21127;-70
2022/09/14 02:06:15;;;;;;;;;;;;;;;13.15;75.07;98241.98;1693011;79;20106;-70
2022/09/14 02:08:42;;;;;;;;;;;;;;;13.16;74.91;98236.95;1682965;82;20162;-70
2022/09/14 02:11:08;;;;;;;;;;;;;;;13.21;74.55;98225.63;1680728;85;20153;-70
2022/09/14 02:13:34;;;;;;;;;;;;;;;13.25;74.18;98219.62;1690618;85;20094;-70
2022/09/14 02:16:01;;;;;;;;;;;;;;;13.26;73.99;98217.26;1678351;85;21357;-70
2022/09/14 02:18:28;;;;;;;;;;;;;;;13.27;73.82;98212.74;1697165;84;20440;-70
2022/09/14 02:20:58;;;;;;;;;;;;;;;13.30;73.52;98212.28;1688850;83;20128;-69
2022/09/14 02:23:24;;;;;;;;;;;;;;;13.28;73.08;98203.16;1682192;83;20128;-69
2022/09/14 02:25:51;;;;;;;;;;;;;;;13.22;72.95;98213.38;1688627;84;20131;-70
2022/09/14 02:28:19;;;;;;;;;;;;;;;13.16;72.98;98207.59;1717116;82;21901;-69
2022/09/14 02:31:15;;;;;;;;;;;;;;;13.15;72.92;98205.94;1712324;83;20184;-69
2022/09/14 02:34:00;;;;;;;;;;;;;;;13.11;73.00;98202.59;1686643;83;20473;-69
2022/09/14 02:36:33;;;;;;;;;;;;;;;13.10;73.05;98196.42;1694880;83;20109;-69
2022/09/14 02:39:15;;;;;;;;;;;;;;;13.11;73.04;98183.91;1691049;84;20103;-70
2022/09/14 02:41:50;;;;;;;;;;;;;;;13.11;72.94;98183.39;1684699;84;21138;-69
2022/09/14 02:44:20;;;;;;;;;;;;;;;13.06;72.97;98187.71;1696427;83;20120;-68
2022/09/14 02:46:56;;;;;;;;;;;;;;;13.01;73.09;98182.48;1646595;83;20439;-69
2022/09/14 02:49:32;;;;;;;;;;;;;;;12.96;73.18;98184.16;1684217;85;20081;-70
2022/09/14 02:52:08;;;;;;;;;;;;;;;12.89;73.40;98175.39;1694472;84;20099;-69
2022/09/14 02:54:57;;;;;;;;;;;;;;;12.82;73.60;98172.79;1693331;84;21019;-70
2022/09/14 02:57:24;;;;;;;;;;;;;;;12.78;73.81;98184.09;1712039;82;20172;-69
2022/09/14 02:59:54;;;;;;;;;;;;;;;12.74;74.05;98190.39;1695353;83;20182;-70
2022/09/14 03:02:21;;;;;;;;;;;;;;;12.74;74.28;98183.72;1717149;82;20292;-70
2022/09/14 03:04:47;;;;;;;;;;;;;;;12.78;74.37;98176.08;1715450;82;20087;-70
2022/09/14 03:07:14;;;;;;;;;;;;;;;12.80;74.52;98175.38;1695464;83;21438;-70
2022/09/14 03:09:40;;;;;;;;;;;;;;;12.84;74.59;98168.05;1695745;83;20178;-69
2022/09/14 03:12:06;;;;;;;;;;;;;;;12.88;74.50;98171.91;1694932;83;20433;-69
2022/09/14 03:14:33;;;;;;;;;;;;;;;12.89;74.59;98166.05;1716104;82;20153;-68
2022/09/14 03:16:59;;;;;;;;;;;;;;;12.92;74.71;98156.28;1719028;82;20436;-68
2022/09/14 03:19:26;;;;;;;;;;;;;;;12.96;74.70;98152.13;1718614;82;20688;-69
2022/09/14 03:21:52;;;;;;;;;;;;;;;12.95;74.70;98146.00;1698334;83;20523;-69
2022/09/14 03:24:18;;;;;;;;;;;;;;;12.96;74.80;98141.45;1716809;83;20086;-69
2022/09/14 03:26:46;;;;;;;;;;;;;;;12.95;74.75;98141.17;1683403;84;20088;-69
2022/09/14 03:29:12;;;;;;;;;;;;;;;12.95;74.77;98143.34;1698188;83;20103;-68
2022/09/14 03:31:38;;;;;;;;;;;;;;;12.97;74.92;98143.92;1718004;82;21290;-68
2022/09/14 03:34:05;;;;;;;;;;;;;;;13.00;74.94;98140.83;1698397;83;20147;-69
2022/09/14 03:36:31;;;;;;;;;;;;;;;12.99;74.88;98135.69;1698308;83;20127;-69
2022/09/14 03:38:58;;;;;;;;;;;;;;;12.92;74.85;98129.59;1696662;83;20146;-69
2022/09/14 03:41:24;;;;;;;;;;;;;;;12.84;74.86;98125.34;1722042;82;20445;-69
2022/09/14 03:43:50;;;;;;;;;;;;;;;12.75;75.10;98123.14;1720808;82;21143;-69
2022/09/14 03:46:20;;;;;;;;;;;;;;;12.70;75.35;98128.30;1697440;83;20075;-69
2022/09/14 03:48:47;;;;;;;;;;;;;;;12.67;75.63;98131.44;1699571;82;20146;-69
2022/09/14 03:51:13;;;;;;;;;;;;;;;12.68;75.97;98125.05;1700034;83;20139;-68
2022/09/14 03:53:40;;;;;;;;;;;;;;;12.72;76.16;98115.05;1717939;83;20443;-68
2022/09/14 03:56:12;;;;;;;;;;;;;;;12.79;76.20;98118.51;1699270;83;21139;-68
2022/09/14 03:58:38;;;;;;;;;;;;;;;12.83;76.20;98112.20;1699548;83;20441;-69
2022/09/14 04:01:06;;;;;;;;;;;;;;;12.91;76.20;98115.94;1698200;83;20440;-69
2022/09/14 04:03:32;;;;;;;;;;;;;;;12.95;76.28;98115.30;1717783;83;20126;-69
2022/09/14 04:05:59;;;;;;;;;;;;;;;13.07;76.18;98114.60;1697755;83;20198;-69
2022/09/14 04:08:25;;;;;;;;;;;;;;;13.18;76.13;98114.72;1698420;83;20568;-69
2022/09/14 04:10:52;;;;;;;;;;;;;;;13.36;76.00;98118.76;1717285;83;20106;-69
2022/09/14 04:13:19;;;;;;;;;;;;;;;13.48;75.54;98115.64;1699934;83;20177;-69
2022/09/14 04:15:49;;;;;;;;;;;;;;;13.54;75.27;98118.77;1691090;83;20092;-69
2022/09/14 04:18:15;;;;;;;;;;;;;;;13.57;75.09;98121.01;1660965;85;20088;-69
2022/09/14 04:20:41;;;;;;;;;;;;;;;13.59;75.03;98121.59;1665194;85;21149;-69
2022/09/14 04:23:08;;;;;;;;;;;;;;;13.66;74.93;98119.38;1665744;85;20117;-69
2022/09/14 04:25:34;;;;;;;;;;;;;;;13.69;74.78;98116.27;1664431;85;20128;-69
2022/09/14 04:28:02;;;;;;;;;;;;;;;13.71;74.75;98109.66;1666880;85;20169;-69
2022/09/14 04:30:28;;;;;;;;;;;;;;;13.78;74.70;98119.75;1665549;85;20136;-69
2022/09/14 04:32:54;;;;;;;;;;;;;;;13.81;74.66;98111.80;1663650;85;21143;-69
2022/09/14 04:35:21;;;;;;;;;;;;;;;13.85;74.71;98112.98;1663135;85;20116;-69
2022/09/14 04:37:47;;;;;;;;;;;;;;;13.88;74.84;98111.20;1665984;85;20239;-69
2022/09/14 04:40:13;;;;;;;;;;;;;;;13.91;74.95;98113.43;1666743;85;20116;-69
2022/09/14 04:42:40;;;;;;;;;;;;;;;13.95;75.04;98110.59;1664812;85;20107;-68
2022/09/14 04:45:07;;;;;;;;;;;;;;;14.00;75.06;98110.76;1667743;85;21157;-68
2022/09/14 04:47:33;;;;;;;;;;;;;;;14.04;75.12;98106.58;1666412;85;20092;-68
2022/09/14 04:50:00;;;;;;;;;;;;;;;14.11;75.09;98108.64;1665514;85;20169;-68
2022/09/14 04:52:26;;;;;;;;;;;;;;;14.16;75.00;98104.25;1665497;85;20120;-68
2022/09/14 04:54:54;;;;;;;;;;;;;;;14.19;75.00;98110.48;1665505;85;20597;-69
2022/09/14 04:57:20;;;;;;;;;;;;;;;14.22;75.12;98106.55;1661846;85;21156;-69
2022/09/14 04:59:47;;;;;;;;;;;;;;;14.25;75.19;98104.77;1663508;85;20199;-69
2022/09/14 05:02:13;;;;;;;;;;;;;;;14.29;75.29;98109.94;1666618;85;20171;-69
2022/09/14 05:04:41;;;;;;;;;;;;;;;14.30;75.45;98102.22;1665887;85;20267;-70
2022/09/14 05:07:07;;;;;;;;;;;;;;;14.39;75.44;98096.07;1664811;85;20148;-69
2022/09/14 05:09:34;;;;;;;;;;;;;;;14.41;75.56;98093.46;1664820;85;21285;-70
2022/09/14 05:12:01;;;;;;;;;;;;;;;14.41;75.79;98096.14;1663970;85;20119;-70
2022/09/14 05:14:27;;;;;;;;;;;;;;;14.45;76.05;98102.66;1665265;85;20156;-71
2022/09/14 05:16:55;;;;;;;;;;;;;;;14.48;76.26;98095.52;1677920;83;20099;-72
2022/09/14 05:19:21;;;;;;;;;;;;;;;14.54;76.44;98092.45;1689228;83;20226;-72
2022/09/14 05:21:47;;;;;;;;;;;;;;;14.56;76.70;98099.20;1691082;83;21111;-72
2022/09/14 05:24:17;;;;;;;;;;;;;;;14.59;76.86;98096.59;1691169;83;20211;-70
2022/09/14 05:26:44;;;;;;;;;;;;;;;14.61;77.05;98104.69;1689358;83;20132;-71
2022/09/14 05:29:15;;;;;;;;;;;;;;;14.62;77.31;98104.98;1711874;83;20238;-71
2022/09/14 05:31:42;;;;;;;;;;;;;;;14.64;77.65;98098.05;1709767;82;20510;-69
2022/09/14 05:34:09;;;;;;;;;;;;;;;14.65;77.92;98089.78;1692472;83;21146;-69
2022/09/14 05:36:36;;;;;;;;;;;;;;;14.66;78.25;98090.09;1694345;83;20123;-69
2022/09/14 05:39:04;;;;;;;;;;;;;;;14.67;78.57;98094.41;1695587;83;20115;-69
2022/09/14 05:41:31;;;;;;;;;;;;;;;14.71;78.88;98092.89;1711844;84;20145;-68
2022/09/14 05:43:58;;;;;;;;;;;;;;;14.76;79.17;98091.67;1724337;82;20254;-69
2022/09/14 05:46:24;;;;;;;;;;;;;;;14.78;79.46;98094.93;1719983;82;21315;-69
2022/09/14 05:48:51;;;;;;;;;;;;;;;14.79;79.69;98082.37;1721303;82;20217;-69
2022/09/14 05:51:19;;;;;;;;;;;;;;;14.83;79.82;98091.04;1720179;82;20194;-69
2022/09/14 05:53:50;;;;;;;;;;;;;;;14.88;79.93;98078.84;1719497;82;20624;-69
2022/09/14 05:56:17;;;;;;;;;;;;;;;14.92;80.05;98083.49;1721104;82;20147;-69
2022/09/14 05:58:43;;;;;;;;;;;;;;;14.97;80.20;98079.59;1721483;82;21325;-74
2022/09/14 06:01:12;;;;;;;;;;;;;;;15.10;80.33;98081.23;1722279;82;20136;-70
2022/09/14 06:03:38;;;;;;;;;;;;;;;15.22;80.17;98075.37;1721316;82;20119;-69
2022/09/14 06:06:07;;;;;;;;;;;;;;;15.37;80.12;98073.02;1722257;82;20098;-70
2022/09/14 06:08:33;;;;;;;;;;;;;;;15.52;79.90;98070.70;1718602;82;20119;-69
2022/09/14 06:11:11;;;;;;;;;;;;;;;15.64;79.65;98064.81;1720739;82;21070;-69
2022/09/14 06:13:37;;;;;;;;;;;;;;;15.72;79.35;98063.08;1719339;82;20167;-69
2022/09/14 06:16:05;;;;;;;;;;;;;;;15.96;79.36;98051.23;1719439;82;20082;-69
2022/09/14 06:18:32;;;;;;;;;;;;;;;16.34;78.86;98053.83;1723414;82;20135;-68
2022/09/14 06:20:58;;;;;;;;;;;;;;;16.87;77.97;98050.19;1723058;82;20091;-69
2022/09/14 06:23:27;;;;;;;;;;;;;;;17.37;76.73;98049.31;1724529;82;21217;-69
2022/09/14 06:25:57;;;;;;;;;;;;;;;18.00;75.26;98038.87;1721923;82;20095;-69
2022/09/14 06:28:24;;;;;;;;;;;;;;;18.65;73.29;98036.58;1722399;82;20107;-69
2022/09/14 06:30:50;;;;;;;;;;;;;;;19.73;70.66;98031.94;1719246;82;20128;-68
2022/09/14 06:33:17;;;;;;;;;;;;;;;20.45;67.54;98029.72;1721636;82;20217;-70
2022/09/14 06:35:53;;;;;;;;;;;;;;;20.81;65.17;98030.83;1720083;82;22215;-69
2022/09/14 06:38:19;;;;;;;;;;;;;;;21.08;64.02;98031.93;1718059;82;20130;-70
2022/09/14 06:40:58;;;;;;;;;;;;;;;21.86;62.27;98030.39;1692468;83;20120;-68
2022/09/14 06:43:25;;;;;;;;;;;;;;;23.23;59.18;98021.56;1719396;82;20083;-68
2022/09/14 06:46:01;;;;;;;;;;;;;;;24.76;55.15;98015.29;1697160;83;20099;-69
2022/09/14 06:48:32;;;;;;;;;;;;;;;26.20;51.26;98005.80;1708832;82;20651;-69
2022/09/14 06:50:59;;;;;;;;;;;;;;;27.58;47.50;98002.94;1692357;83;20088;-69
2022/09/14 06:53:25;;;;;;;;;;;;;;;28.74;44.33;97999.45;1717688;83;20106;-69
2022/09/14 06:55:52;;;;;;;;;;;;;;;29.59;41.91;97996.28;1701552;83;20175;-69
2022/09/14 06:58:18;;;;;;;;;;;;;;;29.65;40.46;97999.05;1697525;83;20111;-70
2022/09/14 07:00:44;;;;;;;;;;;;;;;29.69;39.69;97995.35;1719343;82;21294;-69
2022/09/14 07:03:10;;;;;;;;;;;;;;;29.98;38.40;97995.14;1690021;83;20171;-69
2022/09/14 07:05:37;;;;;;;;;;;;;;;30.07;37.90;97995.87;1723049;82;20441;-67
2022/09/14 07:08:03;;;;;;;;;;;;;;;30.38;36.90;97988.91;1694514;83;20179;-69
2022/09/14 07:10:30;;;;;;;;;;;;;;;30.64;36.01;97992.00;1719418;82;20095;-69
2022/09/14 07:12:59;;;;;;;;;;;;;;;30.53;35.95;97993.78;1714038;83;21210;-69
2022/09/14 07:15:26;;;;;;;;;;;;;;;30.63;35.93;97998.64;1698901;83;20146;-68
2022/09/14 07:17:52;;;;;;;;;;;;;;;30.98;35.58;97996.64;1713903;83;20105;-69
2022/09/14 07:20:18;;;;;;;;;;;;;;;31.58;33.90;97990.48;1712907;82;20118;-69
2022/09/14 07:22:45;;;;;;;;;;;;;;;32.10;32.92;97993.36;1716502;82;20170;-68
2022/09/14 07:25:11;;;;;;;;;;;;;;;32.29;32.50;97994.94;1715454;82;21273;-68
2022/09/14 07:27:39;;;;;;;;;;;;;;;31.59;33.04;97992.11;1694260;83;20450;-68
2022/09/14 07:30:07;;;;;;;;;;;;;;;30.45;34.42;98000.73;1710694;82;20427;-68
2022/09/14 07:32:34;;;;;;;;;;;;;;;29.28;36.32;98002.83;1708312;82;20098;-68
2022/09/14 07:35:00;;;;;;;;;;;;;;;28.31;37.75;97999.44;1695052;83;20087;-68
2022/09/14 07:37:28;;;;;;;;;;;;;;;27.30;38.95;98014.56;1696851;83;21167;-68
2022/09/14 07:39:56;;;;;;;;;;;;;;;26.27;40.80;98013.00;1695030;83;20115;-67
2022/09/14 07:42:22;;;;;;;;;;;;;;;25.56;42.34;98018.53;1714921;82;20127;-68
2022/09/14 07:44:48;;;;;;;;;;;;;;;24.91;43.58;98010.98;1711632;84;20114;-68
2022/09/14 07:47:15;;;;;;;;;;;;;;;24.27;44.77;98013.61;1693948;84;20091;-68
2022/09/14 07:49:41;;;;;;;;;;;;;;;23.64;46.25;98019.81;1715071;82;21353;-68
2022/09/14 07:52:07;;;;;;;;;;;;;;;23.17;47.69;98021.92;1690411;83;20107;-68
2022/09/14 07:54:34;;;;;;;;;;;;;;;23.05;48.83;98025.00;1714876;82;20119;-68
2022/09/14 07:57:00;;;;;;;;;;;;;;;23.05;49.27;98020.12;1691132;83;20153;-68
2022/09/14 07:59:27;;;;;;;;;;;;;;;22.88;49.53;98015.13;1718349;82;20146;-68
2022/09/14 08:01:53;;;;;;;;;;;;;;;22.76;50.37;98011.96;1689460;83;21349;-68
2022/09/14 08:04:20;;;;;;;;;;;;;;;22.72;50.80;98004.96;1715785;82;20119;-68
2022/09/14 08:06:46;;;;;;;;;;;;;;;22.84;51.18;98002.44;1691387;83;20433;-68
2022/09/14 08:09:13;;;;;;;;;;;;;;;23.01;51.20;98009.05;1710664;84;20185;-68
2022/09/14 08:11:39;;;;;;;;;;;;;;;23.59;50.54;98011.20;1695801;83;20103;-68
2022/09/14 08:14:10;;;;;;;;;;;;;;;24.04;49.13;98012.51;1697748;83;21158;-69
2022/09/14 08:16:37;;;;;;;;;;;;;;;24.21;48.73;98009.33;1694996;83;20112;-68
2022/09/14 08:19:06;;;;;;;;;;;;;;;24.10;48.96;98022.25;1695073;83;20461;-68
2022/09/14 08:21:32;;;;;;;;;;;;;;;24.02;49.43;98020.14;1695187;83;20134;-68
2022/09/14 08:24:01;;;;;;;;;;;;;;;24.08;49.50;98023.09;1697399;83;20205;-68
2022/09/14 08:26:27;;;;;;;;;;;;;;;24.10;49.58;98016.00;1716524;82;21163;-68
2022/09/14 08:28:53;;;;;;;;;;;;;;;24.03;49.88;98017.70;1692490;83;20151;-69
2022/09/14 08:31:21;;;;;;;;;;;;;;;24.15;49.63;98022.17;1719962;82;20144;-68
2022/09/14 08:33:53;;;;;;;;;;;;;;;24.60;49.12;98019.89;1690129;83;20100;-68
2022/09/14 08:36:20;;;;;;;;;;;;;;;24.92;47.99;98010.44;1717521;82;20229;-68
2022/09/14 08:38:46;;;;;;;;;;;;;;;25.36;47.24;98014.00;1692167;83;21188;-68
2022/09/14 08:41:31;;;;;;;;;;;;;;;26.92;45.39;98017.48;1712298;83;20141;-69
2022/09/14 08:44:13;;;;;;;;;;;;;;;29.06;41.87;98009.06;1681529;84;20157;-68
2022/09/14 08:46:43;;;;;;;;;;;;;;;31.14;37.57;98002.29;1682460;84;20120;-68
2022/09/14 08:49:19;;;;;;;;;;;;;;;33.23;34.54;97995.30;1682890;84;20157;-69
2022/09/14 08:51:45;;;;;;;;;;;;;;;35.14;31.51;97988.70;1682613;84;21297;-69
2022/09/14 08:54:11;;;;;;;;;;;;;;;36.64;28.58;97983.20;1684101;84;20439;-69
2022/09/14 08:56:43;;;;;;;;;;;;;;;37.94;27.20;97976.03;1685956;84;20132;-69
2022/09/14 08:59:25;;;;;;;;;;;;;;;39.09;25.65;97980.59;1684928;84;20132;-68
2022/09/14 09:02:16;;;;;;;;;;;;;;;39.95;23.86;97988.66;1684807;84;20466;-69
2022/09/14 09:05:08;;;;;;;;;;;;;;;40.15;23.03;97986.88;1680943;84;21160;-68
2022/09/14 09:07:41;;;;;;;;;;;;;;;39.50;22.86;97991.61;1686380;84;20515;-68
2022/09/14 09:10:08;;;;;;;;;;;;;;;39.49;23.28;97990.63;1681969;84;20197;-69
2022/09/14 09:12:37;;;;;;;;;;;;;;;39.99;22.65;97988.66;1663285;84;20128;-69
2022/09/14 09:15:08;;;;;;;;;;;;;;;40.55;22.08;97991.36;1683803;84;20141;-69
2022/09/14 09:17:37;;;;;;;;;;;;;;;40.99;21.68;97992.78;1676669;84;21270;-69
2022/09/14 09:20:19;;;;;;;;;;;;;;;41.76;20.58;97972.78;1718057;83;20089;-69
2022/09/14 09:22:52;;;;;;;;;;;;;;;42.63;19.45;97981.30;1592517;85;20151;-69
2022/09/14 09:25:26;;;;;;;;;;;;;;;43.37;19.54;97976.91;1697171;83;20108;-69
2022/09/14 09:27:58;;;;;;;;;;;;;;;43.56;18.25;97985.22;1698104;83;20091;-69
2022/09/14 09:30:25;;;;;;;;;;;;;;;42.37;18.92;97993.95;1720986;82;21272;-69
2022/09/14 09:32:52;;;;;;;;;;;;;;;40.93;19.88;97998.61;1720086;82;37761;-69
2022/09/14 09:35:37;;;;;;;;;;;;;;;40.02;21.10;98001.17;1640053;87;20163;-69
2022/09/14 09:38:15;;;;;;;;;;;;;;;39.25;21.71;97998.34;1641409;83;20133;-68
2022/09/14 09:40:45;;;;;;;;;;;;;;;38.07;22.64;97997.54;1697650;84;20141;-68
2022/09/14 09:43:13;;;;;;;;;;;;;;;36.74;23.71;97998.34;1700310;83;21157;-68
2022/09/14 09:45:49;;;;;;;;;;;;;;;35.62;25.37;98012.07;1699931;83;20227;-68
2022/09/14 09:48:17;;;;;;;;;;;;;;;34.94;26.48;98015.50;1697116;83;20111;-68
2022/09/14 09:50:49;;;;;;;;;;;;;;;34.65;27.02;98006.45;1695992;83;20144;-68
2022/09/14 09:53:16;;;;;;;;;;;;;;;34.81;27.20;98009.14;1715587;82;20136;-68
2022/09/14 09:55:44;;;;;;;;;;;;;;;35.34;26.82;98004.06;1720992;82;21226;-68
2022/09/14 09:58:29;;;;;;;;;;;;;;;35.06;26.66;98007.11;1676020;83;20119;-69
2022/09/14 10:01:06;;;;;;;;;;;;;;;34.93;26.30;97999.30;1698917;83;20192;-68
2022/09/14 10:03:37;;;;;;;;;;;;;;;35.28;26.13;98006.91;1715852;82;20119;-68
2022/09/14 10:06:06;;;;;;;;;;;;;;;35.83;25.98;98009.66;1720142;82;20127;-68
2022/09/14 10:08:36;;;;;;;;;;;;;;;36.85;24.59;98010.36;1699301;83;21174;-69
2022/09/14 10:11:02;;;;;;;;;;;;;;;37.96;23.45;98009.19;1696158;83;20090;-69
2022/09/14 10:13:31;;;;;;;;;;;;;;;39.03;22.60;98000.85;1698448;83;20119;-69
2022/09/14 10:16:07;;;;;;;;;;;;;;;39.94;21.57;98005.19;1700846;83;20174;-69
2022/09/14 10:18:35;;;;;;;;;;;;;;;40.71;20.45;98004.84;1718690;82;20111;-68
2022/09/14 10:21:04;;;;;;;;;;;;;;;40.43;20.10;98011.87;1716281;81;21239;-69
2022/09/14 10:23:34;;;;;;;;;;;;;;;39.55;20.96;98011.31;1698720;81;20071;-69
2022/09/14 10:26:13;;;;;;;;;;;;;;;39.05;21.39;98013.17;1699181;83;20083;-69
2022/09/14 10:28:43;;;;;;;;;;;;;;;38.39;21.75;98009.47;1716020;81;20205;-69
2022/09/14 10:31:21;;;;;;;;;;;;;;;37.28;22.81;98011.68;1701455;80;20167;-69
2022/09/14 10:33:52;;;;;;;;;;;;;;;36.09;24.20;98012.47;1713145;78;21163;-69
2022/09/14 10:36:30;;;;;;;;;;;;;;;35.52;24.87;98020.95;1668081;83;20123;-69
2022/09/14 10:39:18;;;;;;;;;;;;;;;35.03;25.71;98020.81;1693941;82;20083;-69
2022/09/14 10:42:00;;;;;;;;;;;;;;;34.45;26.10;98019.97;1724928;81;20131;-69
2022/09/14 10:44:58;;;;;;;;;;;;;;;33.54;27.09;98016.57;1709104;82;20083;-69
2022/09/14 10:47:51;;;;;;;;;;;;;;;32.78;28.38;98012.70;1714566;83;21271;-68
2022/09/14 10:50:45;;;;;;;;;;;;;;;32.42;28.90;98017.72;1714700;83;20089;-69
2022/09/14 10:53:16;;;;;;;;;;;;;;;31.64;29.73;98020.73;1725694;82;20405;-68
2022/09/14 10:55:52;;;;;;;;;;;;;;;30.87;31.43;98021.50;1713797;83;20130;-68
2022/09/14 10:58:28;;;;;;;;;;;;;;;30.33;31.99;98020.63;1691311;84;20115;-68
2022/09/14 11:00:59;;;;;;;;;;;;;;;29.72;33.00;98028.92;1685251;83;21142;-69
2022/09/14 11:03:47;;;;;;;;;;;;;;;29.25;34.04;98030.08;1691827;84;20116;-69
2022/09/14 11:06:44;;;;;;;;;;;;;;;28.98;34.99;98033.95;1591867;88;20110;-68
2022/09/14 11:09:31;;;;;;;;;;;;;;;28.87;35.48;98032.67;1593860;88;20119;-69
2022/09/14 11:12:01;;;;;;;;;;;;;;;28.64;36.11;98028.51;1662687;84;20534;-69
2022/09/14 11:14:35;;;;;;;;;;;;;;;28.51;36.52;98031.61;1695788;84;21161;-69
2022/09/14 11:17:35;;;;;;;;;;;;;;;28.58;36.18;98029.20;1696138;84;20320;-69
2022/09/14 11:20:25;;;;;;;;;;;;;;;28.47;36.03;98029.27;1697323;84;20441;-69
2022/09/14 11:23:01;;;;;;;;;;;;;;;28.20;36.64;98024.66;1717299;83;20090;-69
2022/09/14 11:25:33;;;;;;;;;;;;;;;27.97;36.96;98030.78;1697680;84;20123;-69
2022/09/14 11:28:04;;;;;;;;;;;;;;;27.70;37.47;98029.08;1716382;83;21797;-69
2022/09/14 11:30:58;;;;;;;;;;;;;;;27.47;38.21;98031.08;1716984;83;20436;-69
2022/09/14 11:33:40;;;;;;;;;;;;;;;27.24;39.06;98028.13;1695360;83;20099;-69
2022/09/14 11:36:18;;;;;;;;;;;;;;;27.19;39.58;98026.89;1698595;83;20457;-69
2022/09/14 11:38:51;;;;;;;;;;;;;;;27.13;39.84;98031.41;1719360;82;20142;-69
2022/09/14 11:41:26;;;;;;;;;;;;;;;27.11;39.89;98025.47;1698762;83;21158;-67
2022/09/14 11:44:05;;;;;;;;;;;;;;;27.16;39.75;98018.52;1697625;83;20164;-69
2022/09/14 11:46:34;;;;;;;;;;;;;;;27.22;39.50;98017.27;1718261;82;20095;-68
2022/09/14 11:49:18;;;;;;;;;;;;;;;27.24;39.98;98017.20;1718092;82;20491;-68
2022/09/14 11:51:51;;;;;;;;;;;;;;;27.19;39.60;98012.44;1700307;83;20120;-69
2022/09/14 11:54:19;;;;;;;;;;;;;;;26.91;39.57;98023.48;1719573;82;20539;-68
2022/09/14 11:56:50;;;;;;;;;;;;;;;26.75;40.10;98022.20;1719463;82;20083;-68
2022/09/14 11:59:35;;;;;;;;;;;;;;;26.95;40.59;98025.86;1699082;83;20413;-68
2022/09/14 12:02:28;;;;;;;;;;;;;;;27.28;40.54;98019.54;1693534;83;20158;-69
2022/09/14 12:05:09;;;;;;;;;;;;;;;27.50;39.55;98017.36;1697441;83;20111;-69
2022/09/14 12:07:44;;;;;;;;;;;;;;;27.50;39.70;98018.72;1717284;83;21150;-68
2022/09/14 12:10:17;;;;;;;;;;;;;;;27.42;39.47;98025.76;1699340;83;20417;-68
2022/09/14 12:12:49;;;;;;;;;;;;;;;27.18;39.83;98031.28;1698054;83;20421;-68
2022/09/14 12:15:25;;;;;;;;;;;;;;;26.93;40.52;98029.43;1715797;82;20070;-68
2022/09/14 12:18:02;;;;;;;;;;;;;;;26.87;41.23;98024.42;1716875;83;20565;-68
2022/09/14 12:20:41;;;;;;;;;;;;;;;26.79;41.25;98028.70;1699601;83;21155;-68
2022/09/14 12:23:30;;;;;;;;;;;;;;;26.70;41.36;98024.25;1718538;82;20099;-69
2022/09/14 12:26:09;;;;;;;;;;;;;;;26.70;41.69;98027.79;1719609;82;20119;-68
2022/09/14 12:28:39;;;;;;;;;;;;;;;26.68;41.60;98023.77;1698700;83;20091;-69
2022/09/14 12:31:09;;;;;;;;;;;;;;;26.58;41.59;98025.37;1718733;82;20134;-68
2022/09/14 12:33:39;;;;;;;;;;;;;;;26.51;42.22;98019.55;1718694;82;21167;-69
2022/09/14 12:36:09;;;;;;;;;;;;;;;26.41;42.23;98015.69;1699767;83;20099;-69
2022/09/14 12:38:55;;;;;;;;;;;;;;;26.30;42.51;98031.47;1698687;83;20091;-69
2022/09/14 12:41:27;;;;;;;;;;;;;;;26.14;42.57;98029.63;1699210;83;20174;-68
2022/09/14 12:43:53;;;;;;;;;;;;;;;25.97;42.26;98026.68;1698419;83;20219;-69
2022/09/14 12:46:23;;;;;;;;;;;;;;;25.78;42.42;98021.92;1697186;83;21786;-69
2022/09/14 12:49:01;;;;;;;;;;;;;;;25.68;42.84;98021.55;1697528;83;20087;-69
2022/09/14 12:51:31;;;;;;;;;;;;;;;25.63;43.23;98032.55;1717814;83;20431;-69
2022/09/14 12:54:10;;;;;;;;;;;;;;;25.60;42.98;98025.55;1679863;84;20121;-68
2022/09/14 12:56:41;;;;;;;;;;;;;;;25.49;43.08;98028.21;1717155;83;20118;-67
2022/09/14 12:59:27;;;;;;;;;;;;;;;25.45;43.49;98031.23;1699984;83;21163;-69
2022/09/14 13:02:16;;;;;;;;;;;;;;;25.47;43.83;98022.27;1717324;82;20082;-69
2022/09/14 13:04:44;;;;;;;;;;;;;;;25.38;43.81;98016.67;1698729;83;20221;-69
2022/09/14 13:07:15;;;;;;;;;;;;;;;25.32;44.09;98026.58;1699048;83;20095;-69
2022/09/14 13:09:47;;;;;;;;;;;;;;;25.27;44.40;98027.48;1699115;83;20178;-68